Time;durP1;ratioP1;P1;durP2;ratioP2;P2;SDS_P1;SDS_P2;PMS_P1;PMS_P2;Temp;Humidity;BMP_temperature;BMP_pressure;BME280_temperature;BME280_humidity;BME280_pressure;Samples;Min_cycle;Max_cycle;Signal;HPM_P1;HPM_P2
2023/03/13 00:05:38;;;;;;;8.77;2.08;;;10.90;99.90;;;;;;6269373;23;20050;-83
2023/03/13 00:08:20;;;;;;;7.00;1.70;;;;;;;;;;6268068;23;20030;-81
2023/03/13 00:11:32;;;;;;;11.20;2.05;;;10.90;99.90;;;;;;6238902;23;20003;-82
2023/03/13 00:17:25;;;;;;;7.93;2.17;;;;;;;;;;6229800;23;19907;-81
2023/03/13 00:19:54;;;;;;;8.02;2.45;;;;;;;;;;6238898;23;20012;-81
2023/03/13 00:22:24;;;;;;;8.40;2.10;;;;;;;;;;6265977;23;20015;-82
2023/03/13 00:24:50;;;;;;;9.10;2.13;;;;;;;;;;6209439;23;20004;-81
2023/03/13 00:27:16;;;;;;;9.20;2.10;;;;;;;;;;6230638;23;20141;-81
2023/03/13 00:29:43;;;;;;;9.63;1.77;;;;;;;;;;6229505;23;20008;-81
2023/03/13 00:32:47;;;;;;;9.52;2.40;;;10.90;99.90;;;;;;6204315;23;20070;-81
2023/03/13 00:35:33;;;;;;;10.25;2.17;;;;;;;;;;6255444;23;20008;-81
2023/03/13 00:38:36;;;;;;;9.98;2.10;;;10.90;99.90;;;;;;6208337;23;20008;-81
2023/03/13 00:44:19;;;;;;;6.55;1.92;;;10.90;99.90;;;;;;6179703;22;20024;-83
2023/03/13 00:46:45;;;;;;;10.27;2.20;;;;;;;;;;6209639;23;20004;-81
2023/03/13 00:49:12;;;;;;;10.25;2.80;;;;;;;;;;6235156;23;20004;-83
2023/03/13 00:51:41;;;;;;;10.85;2.03;;;;;;;;;;6261199;23;20004;-82
2023/03/13 00:56:59;;;;;;;11.38;2.40;;;;;;;;;;6239247;23;20022;-83
2023/03/13 00:59:42;;;;;;;8.45;2.10;;;;;;;;;;6264871;23;20004;-82
2023/03/13 01:02:44;;;;;;;9.93;2.13;;;10.80;99.90;;;;;;6172079;23;20017;-81
2023/03/13 01:08:44;;;;;;;13.43;1.98;;;;;;;;;;6132219;23;20041;-82
2023/03/13 01:17:59;;;;;;;10.13;2.35;;;10.80;99.90;;;;;;6261297;23;20011;-81
2023/03/13 01:21:40;;;;;;;8.73;2.10;;;10.70;99.90;;;;;;6255270;23;20004;-81
2023/03/13 01:27:36;;;;;;;10.25;1.95;;;;;;;;;;6260173;23;20003;-83
2023/03/13 01:30:04;;;;;;;8.30;1.88;;;;;;;;;;6231919;23;20007;-80
2023/03/13 01:32:42;;;;;;;7.55;1.70;;;;;;;;;;6258312;23;20015;-83
2023/03/13 01:35:14;;;;;;;5.68;1.80;;;;;;;;;;6222945;23;20004;-82
2023/03/13 01:38:08;;;;;;;8.18;2.10;;;10.60;99.90;;;;;;6229734;23;20008;-82
2023/03/13 01:42:13;;;;;;;8.02;1.85;;;10.50;99.90;;;;;;6235725;23;20087;-81
2023/03/13 01:44:24;;;;;;;11.57;1.88;;;;;;;;;;6225387;23;20004;-81
2023/03/13 01:47:13;;;;;;;12.18;2.25;;;;;;;;;;6258267;23;20016;-81
2023/03/13 01:50:00;;;;;;;19.63;2.30;;;;;;;;;;6207592;23;20500;-82
2023/03/13 01:52:34;;;;;;;8.73;2.03;;;;;;;;;;6257542;23;20004;-82
2023/03/13 01:55:44;;;;;;;8.65;2.05;;;10.30;99.90;;;;;;6267120;23;20008;-82
2023/03/13 01:58:58;;;;;;;8.80;2.58;;;10.20;99.90;;;;;;6267126;23;20031;-80
2023/03/13 02:05:06;;;;;;;7.90;1.90;;;;;;;;;;6262713;23;20022;-81
2023/03/13 02:08:17;;;;;;;7.82;1.95;;;10.30;99.90;;;;;;6234598;23;20004;-81
2023/03/13 02:11:31;;;;;;;4.97;1.60;;;10.30;99.90;;;;;;6257772;23;20000;-82
2023/03/13 02:18:07;;;;;;;7.60;1.90;;;10.30;99.90;;;;;;6156413;23;20016;-82
2023/03/13 02:20:34;;;;;;;5.57;1.58;;;;;;;;;;6230100;23;20494;-82
2023/03/13 02:30:24;;;;;;;8.30;1.85;;;10.40;99.90;;;;;;6119318;23;20070;-84
2023/03/13 02:33:25;;;;;;;5.72;1.80;;;;;;;;;;6091270;23;20003;-81
2023/03/13 02:35:56;;;;;;;5.00;1.75;;;;;;;;;;6125955;23;20502;-81
2023/03/13 02:41:29;;;;;;;5.22;2.25;;;;;;;;;;6259788;23;20014;-81
2023/03/13 02:44:57;;;;;;;4.38;2.00;;;10.40;99.90;;;;;;6195979;23;20056;-81
2023/03/13 02:47:55;;;;;;;7.50;2.30;;;;;;;;;;6197103;23;20029;-81
2023/03/13 02:54:36;;;;;;;6.68;3.08;;;10.60;99.90;;;;;;6175856;23;20012;-82
2023/03/13 03:00:33;;;;;;;6.80;4.15;;;;;;;;;;6176096;23;20040;-81
2023/03/13 03:03:37;;;;;;;6.90;4.30;;;;;;;;;;6177354;23;20002;-82
2023/03/13 03:06:51;;;;;;;8.00;4.35;;;10.60;99.90;;;;;;6175639;23;19998;-84
2023/03/13 03:20:01;;;;;;;10.65;4.70;;;10.80;99.90;;;;;;6146008;23;20260;-83
2023/03/13 03:26:40;;;;;;;6.00;4.13;;;;;;;;;;6141917;23;20073;-83
2023/03/13 03:29:34;;;;;;;;;;;;;;;;;;;;;
2023/03/13 03:32:09;;;;;;;7.43;3.97;;;;;;;;;;6142461;23;20012;-81
2023/03/13 03:35:07;;;;;;;12.95;4.50;;;;;;;;;;6175719;23;20012;-82
2023/03/13 03:51:38;;;;;;;5.13;3.45;;;;;;;;;;6167572;23;20028;-82
2023/03/13 03:57:32;;;;;;;6.82;3.78;;;;;;;;;;6166424;23;20082;-82
2023/03/13 04:00:41;;;;;;;7.03;3.38;;;10.90;99.90;;;;;;6175289;23;20043;-81
2023/03/13 04:19:52;;;;;;;5.35;3.25;;;11.00;99.90;;;;;;6175538;23;20052;-84
2023/03/13 04:23:20;;;;;;;10.27;3.83;;;11.00;99.90;;;;;;6186685;23;20012;-82
2023/03/13 04:26:01;;;;;;;5.82;4.00;;;;;;;;;;6257517;23;20057;-81
2023/03/13 04:28:40;;;;;;;7.30;5.45;;;11.00;99.90;;;;;;6238231;23;20059;-81
2023/03/13 04:31:13;;;;;;;8.95;5.75;;;;;;;;;;6232227;23;20012;-81
2023/03/13 04:33:39;;;;;;;7.40;5.43;;;;;;;;;;6233122;23;20007;-83
2023/03/13 04:36:17;;;;;;;7.43;5.60;;;11.10;99.90;;;;;;6236601;23;20004;-81
2023/03/13 04:38:44;;;;;;;8.55;5.45;;;;;;;;;;6236430;23;20034;-83
2023/03/13 04:41:32;;;;;;;8.48;5.72;;;;;;;;;;6240596;23;20008;-81
2023/03/13 04:43:58;;;;;;;7.97;6.35;;;;;;;;;;6197619;23;20049;-82
2023/03/13 04:46:36;;;;;;;8.55;5.88;;;;;;;;;;6189000;23;20095;-83
2023/03/13 04:51:54;;;;;;;9.10;6.47;;;;;;;;;;6267846;23;20355;-81
2023/03/13 04:54:23;;;;;;;8.15;6.63;;;11.00;99.90;;;;;;6214992;23;20012;-83
2023/03/13 05:03:54;;;;;;;7.10;6.40;;;;;;;;;;6262201;23;20031;-82
2023/03/13 05:06:49;;;;;;;7.18;6.25;;;11.00;99.90;;;;;;6235433;23;20008;-83
2023/03/13 05:09:16;;;;;;;7.65;6.28;;;;;;;;;;6234264;23;20040;-82
2023/03/13 05:15:07;;;;;;;8.55;6.80;;;;;;;;;;6260429;23;20035;-81
2023/03/13 05:23:34;;;;;;;7.78;6.18;;;;;;;;;;6254369;23;19930;-81
2023/03/13 05:26:01;;;;;;;8.00;5.43;;;;;;;;;;6236684;23;20012;-82
2023/03/13 05:28:30;;;;;;;7.13;6.10;;;;;;;;;;6237313;23;20000;-82
2023/03/13 05:30:56;;;;;;;7.32;6.20;;;;;;;;;;6236813;23;20031;-82
2023/03/13 05:34:00;;;;;;;7.47;6.68;;;11.20;99.90;;;;;;6235290;23;20008;-83
2023/03/13 05:36:32;;;;;;;8.55;7.25;;;;;;;;;;6237593;23;20004;-83
2023/03/13 05:39:01;;;;;;;8.98;7.40;;;;;;;;;;6238047;23;20004;-83
2023/03/13 05:41:31;;;;;;;9.27;7.40;;;;;;;;;;6265971;23;20079;-83
2023/03/13 05:44:26;;;;;;;8.73;7.38;;;;;;;;;;6262831;23;20005;-82
2023/03/13 05:46:53;;;;;;;9.38;7.40;;;;;;;;;;6234394;23;20502;-83
2023/03/13 05:49:19;;;;;;;9.43;7.43;;;;;;;;;;6236613;23;20008;-82
2023/03/13 05:56:00;;;;;;;7.20;6.30;;;11.20;99.90;;;;;;6262724;23;20080;-82
2023/03/13 05:58:26;;;;;;;10.10;6.97;;;;;;;;;;6238007;23;20004;-81
2023/03/13 06:01:01;;;;;;;10.02;6.45;;;;;;;;;;6264236;23;20004;-82
2023/03/13 06:03:27;;;;;;;9.77;6.10;;;;;;;;;;6211930;23;20076;-82
2023/03/13 06:09:54;;;;;;;6.75;5.63;;;11.50;99.90;;;;;;6204691;23;20068;-83
2023/03/13 06:14:26;;;;;;;6.45;5.30;;;;;;;;;;5189963;27;20164;-85
2023/03/13 06:40:15;;;;;;;9.70;5.53;;;;;;;;;;5723891;22;25311429;-86
2023/03/13 06:43:10;;;;;;;10.38;7.30;;;;;;;;;;6296123;22;20254;-83
2023/03/13 07:02:15;;;;;;;7.82;6.28;;;;;;;;;;6118030;23;20052;-89
2023/03/13 07:04:55;;;;;;;10.52;6.30;;;;;;;;;;6155299;23;20021;-87
2023/03/13 07:07:23;;;;;;;10.02;5.60;;;;;;;;;;6154211;23;20066;-86
2023/03/13 07:09:57;;;;;;;8.13;6.18;;;;;;;;;;6231366;22;20102;-89
2023/03/13 07:12:23;;;;;;;7.50;5.72;;;;;;;;;;6324781;22;20006;-88
2023/03/13 07:14:53;;;;;;;7.55;5.43;;;;;;;;;;6299964;22;20026;-86
2023/03/13 07:17:21;;;;;;;7.22;5.75;;;;;;;;;;6294577;22;20084;-84
2023/03/13 07:20:25;;;;;;;6.90;5.07;;;;;;;;;;6299365;22;20586;-88
2023/03/13 07:23:44;;;;;;;8.77;5.88;;;;;;;;;;6283763;22;20087;-86
2023/03/13 07:26:36;;;;;;;7.40;5.35;;;;;;;;;;6285349;22;20015;-86
2023/03/13 07:32:29;;;;;;;8.35;5.05;;;;;;;;;;6165826;23;20016;-86
2023/03/13 07:38:12;;;;;;;6.90;4.50;;;;;;;;;;6168301;23;20065;-87
2023/03/13 07:40:56;;;;;;;6.93;4.82;;;;;;;;;;6135932;23;20361;-89
2023/03/13 07:43:31;;;;;;;8.40;4.45;;;;;;;;;;6157274;23;20012;-88
2023/03/13 07:46:05;;;;;;;7.47;4.65;;;;;;;;;;6160816;23;20001;-87
2023/03/13 07:48:58;;;;;;;5.70;4.40;;;;;;;;;;6161820;23;20036;-89
2023/03/13 07:54:47;;;;;;;8.90;4.63;;;;;;;;;;6170398;23;20021;-86
2023/03/13 07:57:29;;;;;;;5.72;4.00;;;;;;;;;;6163423;23;20083;-86
2023/03/13 08:00:19;;;;;;;;;;;;;;;;;;;;;
2023/03/13 08:02:51;;;;;;;8.97;3.27;;;;;;;;;;6256316;23;20020;-85
2023/03/13 08:05:17;;;;;;;4.63;3.30;;;;;;;;;;6258498;23;20004;-86
2023/03/13 08:11:05;;;;;;;6.65;3.00;;;;;;;;;;6212151;22;20082;-85
2023/03/13 08:13:31;;;;;;;6.10;3.15;;;;;;;;;;6247719;23;20044;-86
2023/03/13 08:16:01;;;;;;;4.72;2.67;;;;;;;;;;6246147;23;20340;-85
2023/03/13 08:18:27;;;;;;;3.17;2.60;;;;;;;;;;6246756;23;20004;-88
2023/03/13 08:20:53;;;;;;;7.35;2.90;;;;;;;;;;6244967;23;20215;-86
2023/03/13 08:23:19;;;;;;;7.00;3.13;;;;;;;;;;6241526;23;20003;-83
2023/03/13 08:25:45;;;;;;;6.55;3.25;;;12.60;99.90;;;;;;6240894;23;20004;-87
2023/03/13 08:28:11;;;;;;;5.38;3.20;;;12.50;99.90;;;;;;6245201;23;20635;-84
2023/03/13 08:30:37;;;;;;;8.48;3.22;;;;;;;;;;6245749;23;20026;-85
2023/03/13 08:33:02;;;;;;;5.15;2.97;;;12.50;99.90;;;;;;6242267;23;20008;-84
2023/03/13 08:35:29;;;;;;;6.45;3.08;;;15.20;99.90;;;;;;6239851;23;20509;-87
2023/03/13 08:37:55;;;;;;;10.48;3.45;;;;;;;;;;6246495;22;20012;-89
2023/03/13 08:40:21;;;;;;;5.15;3.50;;;;;;;;;;6245235;23;20043;-82
2023/03/13 08:42:46;;;;;;;4.28;3.15;;;;;;;;;;6240370;23;20012;-84
2023/03/13 08:45:12;;;;;;;10.07;3.20;;;;;;;;;;6244945;23;20004;-86
2023/03/13 08:47:38;;;;;;;4.55;3.05;;;;;;;;;;6243581;23;20004;-85
2023/03/13 08:50:05;;;;;;;6.43;4.32;;;;;;;;;;6242476;23;20062;-85
2023/03/13 08:52:31;;;;;;;5.15;3.33;;;;;;;;;;6242144;23;20050;-86
2023/03/13 08:54:57;;;;;;;18.88;9.60;;;;;;;;;;6240619;23;20012;-86
2023/03/13 08:57:23;;;;;;;5.63;3.30;;;;;;;;;;6246683;23;20008;-85
2023/03/13 08:59:50;;;;;;;6.40;3.25;;;;;;;;;;6248553;23;20050;-86
2023/03/13 09:02:18;;;;;;;7.70;2.95;;;;;;;;;;6249393;22;20000;-85
2023/03/13 09:04:45;;;;;;;5.97;2.95;;;;;;;;;;6247756;23;20454;-83
2023/03/13 09:07:11;;;;;;;6.45;3.10;;;;;;;;;;6248411;23;20004;-86
2023/03/13 09:09:37;;;;;;;6.43;3.38;;;;;;;;;;6249488;23;20069;-84
2023/03/13 09:12:03;;;;;;;6.63;2.80;;;;;;;;;;6249175;23;20008;-81
2023/03/13 09:14:29;;;;;;;5.45;3.00;;;;;;;;;;6247160;23;20419;-88
2023/03/13 09:16:56;;;;;;;5.43;2.70;;;;;;;;;;6247846;23;20008;-84
2023/03/13 09:19:22;;;;;;;5.90;2.80;;;;;;;;;;6249183;23;20005;-80
2023/03/13 09:21:57;;;;;;;5.22;3.08;;;12.60;99.90;;;;;;6250301;23;20000;-85
2023/03/13 09:24:23;;;;;;;6.97;2.90;;;;;;;;;;6246739;23;20443;-84
2023/03/13 09:26:49;;;;;;;6.30;2.28;;;;;;;;;;6221197;23;20312;-86
2023/03/13 09:29:36;;;;;;;6.60;3.22;;;12.80;99.90;;;;;;6243739;23;20008;-87
2023/03/13 09:32:09;;;;;;;6.55;3.20;;;12.90;99.90;;;;;;6249273;23;20008;-83
2023/03/13 09:34:35;;;;;;;4.03;2.28;;;;;;;;;;6248559;23;20012;-86
2023/03/13 09:37:09;;;;;;;5.40;2.20;;;13.20;99.90;;;;;;6247020;23;20339;-81
2023/03/13 09:39:37;;;;;;;5.63;2.65;;;;;;;;;;6246661;23;20004;-84
2023/03/13 09:42:49;;;;;;;4.38;2.25;;;13.70;99.90;;;;;;6247287;23;20183;-84
2023/03/13 09:45:53;;;;;;;9.57;2.35;;;13.90;99.90;;;;;;6250754;23;20019;-83
2023/03/13 09:48:46;;;;;;;3.58;2.08;;;13.90;99.90;;;;;;6240582;23;20087;-84
2023/03/13 09:51:22;;;;;;;4.72;2.22;;;14.00;99.90;;;;;;6249397;23;20031;-84
2023/03/13 09:54:24;;;;;;;5.57;1.90;;;13.90;99.90;;;;;;6253600;22;20060;-85
2023/03/13 09:57:04;;;;;;;4.57;2.00;;;14.00;99.90;;;;;;6254068;22;20008;-86
2023/03/13 09:59:51;;;;;;;8.07;2.20;;;14.20;99.90;;;;;;6251347;23;20012;-87
2023/03/13 10:02:33;;;;;;;6.07;2.08;;;14.20;99.90;;;;;;6244984;23;20008;-87
2023/03/13 10:05:30;;;;;;;5.10;1.92;;;14.30;99.90;;;;;;6252652;23;20007;-89
